Time;durP1;ratioP1;P1;durP2;ratioP2;P2;SDS_P1;SDS_P2;PMS_P1;PMS_P2;Temp;Humidity;BMP_temperature;BMP_pressure;BME280_temperature;BME280_humidity;BME280_pressure;Samples;Min_cycle;Max_cycle;Signal;HPM_P1;HPM_P2
2022/06/22 00:01:11;;;;;;;1.88;1.38;;;;;;;20.22;56.36;99428.69;4926467;29;20028;-83
2022/06/22 00:03:36;;;;;;;2.20;1.42;;;;;;;20.08;55.50;99444.19;4940636;29;20160;-83
2022/06/22 00:06:02;;;;;;;4.05;1.52;;;;;;;19.96;55.78;99449.44;4916440;29;20118;-87
2022/06/22 00:08:30;;;;;;;2.42;1.55;;;;;;;19.91;55.55;99448.41;4909624;29;20075;-83
2022/06/22 00:11:07;;;;;;;3.30;1.58;;;;;;;19.90;55.51;99454.88;4925220;29;20051;-83
2022/06/22 00:13:33;;;;;;;2.92;1.42;;;;;;;19.84;55.16;99459.22;4913154;29;20036;-83
2022/06/22 00:16:14;;;;;;;3.38;1.40;;;;;;;19.86;55.92;99451.72;4928481;29;20074;-83
2022/06/22 00:18:45;;;;;;;3.25;1.60;;;;;;;19.98;55.98;99441.06;4907604;29;20061;-83
2022/06/22 00:21:28;;;;;;;2.35;1.60;;;;;;;20.00;56.17;99430.84;4925631;29;20027;-83
2022/06/22 00:23:56;;;;;;;3.88;1.60;;;;;;;20.03;56.28;99422.28;4946240;29;20055;-84
2022/06/22 00:26:34;;;;;;;2.20;1.40;;;;;;;20.02;56.53;99407.88;4912790;29;20094;-83
2022/06/22 00:29:18;;;;;;;2.42;1.38;;;;;;;19.96;56.44;99403.28;4910300;29;20032;-83
2022/06/22 00:31:49;;;;;;;3.55;1.63;;;;;;;19.77;55.96;99396.81;4913513;29;20043;-83
2022/06/22 00:34:23;;;;;;;2.90;1.27;;;;;;;19.71;56.14;99397.66;4928571;29;20497;-83
2022/06/22 00:37:03;;;;;;;2.08;1.50;;;;;;;19.84;56.92;99398.69;4909590;29;20038;-83
2022/06/22 00:39:28;;;;;;;2.95;1.70;;;;;;;19.79;55.96;99407.47;4904082;29;20470;-85
2022/06/22 00:42:14;;;;;;;2.67;1.60;;;;;;;19.71;56.00;99413.13;4940033;29;20032;-83
2022/06/22 00:45:02;;;;;;;4.20;1.85;;;;;;;19.60;55.64;99403.75;4929344;29;20279;-83
2022/06/22 00:47:43;;;;;;;2.60;1.70;;;;;;;19.58;55.65;99407.72;4926082;29;20039;-83
2022/06/22 00:50:13;;;;;;;3.65;1.88;;;;;;;19.56;55.29;99401.66;4911711;29;20047;-81
2022/06/22 00:52:52;;;;;;;2.83;1.60;;;;;;;19.59;55.98;99396.66;4925101;29;20056;-83
2022/06/22 00:55:23;;;;;;;2.53;1.58;;;;;;;19.62;56.84;99396.22;4924275;29;20136;-83
2022/06/22 00:57:55;;;;;;;2.50;1.50;;;;;;;19.72;56.56;99395.78;4927956;29;20035;-83
2022/06/22 01:00:22;;;;;;;2.67;1.60;;;;;;;19.66;56.76;99402.06;4925493;29;20031;-83
2022/06/22 01:03:32;;;;;;;3.15;1.55;;;;;;;19.71;57.49;99392.25;4924254;29;20054;-83
2022/06/22 01:06:12;;;;;;;3.78;1.48;;;;;;;19.73;56.23;99387.44;4833568;29;20041;-83
2022/06/22 01:09:16;;;;;;;2.20;1.30;;;;;;;19.67;56.55;99382.84;4922634;29;20043;-83
2022/06/22 01:14:34;;;;;;;3.35;1.90;;;;;;;19.46;56.57;99373.06;4943341;29;20094;-83
2022/06/22 01:17:00;;;;;;;2.65;1.50;;;;;;;19.58;56.24;99367.00;4923705;29;20031;-83
2022/06/22 01:19:35;;;;;;;2.50;1.50;;;;;;;19.53;56.58;99378.50;4909294;29;20032;-83
2022/06/22 01:22:12;;;;;;;2.50;1.60;;;;;;;19.36;56.70;99393.47;4941379;29;20024;-83
2022/06/22 01:24:50;;;;;;;3.28;1.88;;;;;;;19.30;56.95;99389.72;4906302;29;20116;-83
2022/06/22 01:27:34;;;;;;;4.53;2.00;;;;;;;19.22;56.13;99394.50;4911133;29;20586;-83
2022/06/22 01:30:17;;;;;;;2.78;1.83;;;;;;;19.32;57.04;99389.50;4908190;29;20040;-83
2022/06/22 01:32:42;;;;;;;3.45;1.90;;;;;;;19.26;56.42;99390.34;4909012;29;20039;-83
2022/06/22 01:35:29;;;;;;;3.70;1.90;;;;;;;19.27;56.94;99373.88;4924372;29;20046;-83
2022/06/22 01:37:55;;;;;;;4.10;1.83;;;;;;;19.39;57.12;99374.06;4910138;29;20036;-84
2022/06/22 01:40:24;;;;;;;1.95;1.67;;;;;;;19.35;57.15;99379.06;4911158;29;20024;-83
2022/06/22 01:42:56;;;;;;;2.95;1.90;;;;;;;19.21;57.08;99392.84;4910119;29;20163;-92
2022/06/22 01:45:44;;;;;;;2.92;1.70;;;;;;;19.04;57.23;99382.41;4925810;29;20023;-85
2022/06/22 01:48:30;;;;;;;1.90;1.67;;;;;;;19.17;57.61;99378.88;4905785;29;20610;-83
2022/06/22 01:51:10;;;;;;;4.70;2.00;;;;;;;19.07;56.94;99386.59;4920779;29;20047;-83
2022/06/22 01:53:41;;;;;;;4.13;2.40;;;;;;;18.98;57.03;99376.97;4909495;29;20028;-83
2022/06/22 01:56:22;;;;;;;3.10;2.10;;;;;;;18.95;57.88;99377.41;4910341;29;20600;-83
2022/06/22 01:58:56;;;;;;;2.85;2.10;;;;;;;19.09;58.09;99379.06;4908280;29;20043;-83
2022/06/22 02:01:24;;;;;;;5.68;2.42;;;;;;;19.15;58.09;99370.94;4904148;29;20027;-85
2022/06/22 02:04:05;;;;;;;4.57;2.13;;;;;;;19.20;57.45;99364.91;4908516;29;20034;-83
2022/06/22 02:09:22;;;;;;;3.05;1.85;;;;;;;19.21;56.98;99374.69;4927641;29;20050;-84
2022/06/22 02:12:18;;;;;;;5.00;2.13;;;;;;;19.18;57.48;99372.41;4912209;29;20466;-83
2022/06/22 02:14:36;;;;;;;2.95;2.22;;;;;;;18.95;58.03;99372.81;4926216;29;20044;-83
2022/06/22 02:17:02;;;;;;;3.92;2.78;;;;;;;18.90;57.68;99363.59;4924497;29;20039;-83
2022/06/22 02:19:29;;;;;;;4.40;2.47;;;;;;;18.84;57.71;99365.25;4922745;29;20042;-83
2022/06/22 02:21:57;;;;;;;2.30;2.10;;;;;;;18.94;57.64;99354.06;4923169;29;20027;-83
2022/06/22 02:24:29;;;;;;;3.85;2.30;;;;;;;18.84;57.98;99352.56;4905812;29;20047;-83
2022/06/22 02:27:11;;;;;;;4.25;2.53;;;;;;;18.88;58.13;99355.69;4912570;29;20040;-83
2022/06/22 02:29:49;;;;;;;3.30;2.20;;;;;;;18.93;57.93;99357.81;4908614;29;20046;-83
2022/06/22 02:32:18;;;;;;;3.83;2.35;;;;;;;18.82;57.32;99365.47;4907826;29;20031;-82
2022/06/22 02:34:46;;;;;;;3.40;2.30;;;;;;;18.72;57.36;99370.44;4925495;29;20041;-83
2022/06/22 02:37:12;;;;;;;4.22;2.40;;;;;;;18.70;57.76;99375.25;4910809;29;20031;-83
2022/06/22 02:39:43;;;;;;;5.57;2.70;;;;;;;18.64;58.25;99367.09;4909134;29;20028;-83
2022/06/22 02:44:53;;;;;;;3.25;2.15;;;;;;;18.66;57.47;99346.91;4929772;29;20082;-83
2022/06/22 02:47:59;;;;;;;2.50;2.05;;;;;;;18.68;58.06;99350.25;4906668;29;20482;-83
2022/06/22 02:50:31;;;;;;;3.20;2.40;;;;;;;18.58;57.73;99360.59;4895941;29;20048;-83
2022/06/22 02:53:00;;;;;;;3.70;2.50;;;;;;;18.46;57.59;99373.06;4911541;29;20241;-83
2022/06/22 02:55:29;;;;;;;3.97;2.60;;;;;;;18.47;57.56;99362.03;4910178;29;20075;-83
2022/06/22 02:57:54;;;;;;;;;;;;;;;18.44;56.88;99367.00;4913961;29;20078;-84
2022/06/22 03:00:23;;;;;;;3.00;2.15;;;;;;;18.34;57.17;99369.25;4944398;29;19918;-83
2022/06/22 03:02:51;;;;;;;3.28;2.03;;;;;;;18.41;58.01;99367.41;4926262;29;20407;-83
2022/06/22 03:05:17;;;;;;;4.18;2.05;;;;;;;18.50;57.44;99367.03;4912649;29;20042;-83
2022/06/22 03:07:47;;;;;;;2.20;1.98;;;;;;;18.59;58.47;99359.56;4914996;29;20491;-82
2022/06/22 03:10:25;;;;;;;3.03;1.83;;;;;;;18.62;58.73;99355.63;4912031;29;20055;-83
2022/06/22 03:12:51;;;;;;;3.20;2.10;;;;;;;18.65;58.46;99350.66;4929206;29;20027;-83
2022/06/22 03:15:20;;;;;;;3.35;2.05;;;;;;;18.63;57.91;99358.13;4919578;29;20438;-83
2022/06/22 03:17:45;;;;;;;3.72;2.40;;;;;;;18.63;58.64;99343.75;5393642;23;20120;-83
2022/06/22 03:20:17;;;;;;;3.55;2.38;;;;;;;18.53;57.35;99339.53;4922450;29;20051;-83
2022/06/22 03:22:49;;;;;;;3.13;2.38;;;;;;;18.44;57.98;99348.88;4902683;29;20034;-83
2022/06/22 03:25:35;;;;;;;2.42;2.08;;;;;;;18.43;58.04;99355.31;4917633;29;20027;-83
2022/06/22 03:28:13;;;;;;;4.90;2.40;;;;;;;18.45;57.75;99357.84;4919335;29;20114;-83
2022/06/22 03:30:59;;;;;;;2.80;2.40;;;;;;;18.38;58.74;99359.69;4918888;29;20032;-83
2022/06/22 03:33:28;;;;;;;4.18;2.50;;;;;;;18.32;58.53;99368.63;4917970;29;20035;-83
2022/06/22 03:35:56;;;;;;;3.95;2.70;;;;;;;18.23;59.41;99363.38;4918980;29;20035;-83
2022/06/22 03:38:26;;;;;;;4.22;2.70;;;;;;;18.19;59.25;99366.69;4931924;29;20110;-84
2022/06/22 03:40:55;;;;;;;2.78;2.30;;;;;;;18.19;59.08;99381.06;4912032;29;20031;-84
2022/06/22 03:43:26;;;;;;;4.38;2.42;;;;;;;18.19;59.28;99381.06;4912626;29;20406;-83
2022/06/22 03:46:27;;;;;;;5.50;2.65;;;;;;;18.37;58.85;99369.69;4913854;29;20038;-84
2022/06/22 03:49:01;;;;;;;4.20;2.45;;;;;;;18.44;59.56;99377.81;4926088;29;20086;-82
2022/06/22 03:51:31;;;;;;;5.18;2.42;;;;;;;18.40;59.55;99373.84;4921589;29;20063;-83
2022/06/22 03:53:59;;;;;;;4.00;2.42;;;;;;;18.24;59.10;99375.88;4928593;29;20657;-85
2022/06/22 03:56:32;;;;;;;7.22;2.80;;;;;;;18.06;59.59;99363.94;4941719;28;20497;-83
2022/06/22 03:58:59;;;;;;;2.95;2.40;;;;;;;18.26;59.61;99351.31;4909691;29;20456;-84
2022/06/22 04:01:24;;;;;;;5.65;2.60;;;;;;;18.32;60.09;99349.66;4909599;29;20167;-83
2022/06/22 04:03:50;;;;;;;3.50;2.40;;;;;;;18.32;59.56;99350.50;4911385;29;20028;-87
2022/06/22 04:06:31;;;;;;;3.88;2.80;;;;;;;18.20;60.18;99344.00;4929459;29;20035;-89
2022/06/22 04:08:58;;;;;;;5.85;2.47;;;;;;;18.22;59.73;99348.19;4926513;29;20028;-87
2022/06/22 04:11:27;;;;;;;2.88;2.60;;;;;;;18.33;60.28;99341.34;4911832;29;20155;-86
2022/06/22 04:13:59;;;;;;;3.92;2.90;;;;;;;18.39;59.88;99340.53;4911643;29;20032;-87
2022/06/22 04:16:33;;;;;;;3.65;2.40;;;;;;;18.40;60.26;99338.66;4905979;29;20090;-86
2022/06/22 04:19:23;;;;;;;3.42;2.70;;;;;;;18.42;59.89;99342.00;4909149;29;20054;-87
2022/06/22 04:21:52;;;;;;;3.30;2.28;;;;;;;18.42;60.50;99337.41;4942380;29;20083;-86
2022/06/22 04:24:23;;;;;;;3.92;2.60;;;;;;;18.45;60.42;99333.50;4925651;29;20019;-91
2022/06/22 04:27:03;;;;;;;5.35;2.30;;;;;;;18.43;60.13;99335.53;4910216;29;20027;-87
2022/06/22 04:29:34;;;;;;;3.25;2.40;;;;;;;18.32;59.92;99342.38;4945834;29;20118;-89
2022/06/22 04:32:13;;;;;;;6.43;3.00;;;;;;;18.19;60.35;99336.91;4947990;29;20078;-87
2022/06/22 04:34:43;;;;;;;4.75;2.60;;;;;;;18.14;60.07;99342.94;4911552;29;20024;-89
2022/06/22 04:37:40;;;;;;;3.67;2.80;;;;;;;18.14;61.21;99345.66;4926899;29;20471;-91
2022/06/22 04:40:22;;;;;;;5.22;2.70;;;;;;;18.18;60.88;99346.06;4901511;29;20043;-86
2022/06/22 04:42:54;;;;;;;2.63;2.40;;;;;;;18.24;60.94;99348.81;4925160;29;20840;-86
2022/06/22 04:45:39;;;;;;;3.20;2.65;;;;;;;18.29;61.05;99353.63;4922746;29;20031;-86
2022/06/22 04:48:13;;;;;;;5.72;2.70;;;;;;;18.34;60.64;99345.72;4940038;29;20054;-86
2022/06/22 04:50:40;;;;;;;3.08;2.47;;;;;;;18.38;61.01;99351.56;4928678;29;20023;-86
2022/06/22 04:53:15;;;;;;;3.67;2.70;;;;;;;18.33;61.11;99343.22;4927149;29;20039;-90
2022/06/22 04:55:41;;;;;;;4.18;2.72;;;;;;;18.31;61.13;99343.41;4917676;29;20057;-87
2022/06/22 04:58:19;;;;;;;5.85;2.90;;;;;;;18.27;61.18;99352.16;4927752;29;20467;-86
2022/06/22 05:00:45;;;;;;;;;;;;;;;18.22;61.24;99350.88;4942399;29;20123;-86
2022/06/22 05:03:13;;;;;;;4.43;3.05;;;;;;;18.22;61.26;99353.59;4946572;29;20001;-87
2022/06/22 05:05:38;;;;;;;5.40;3.47;;;;;;;18.21;61.69;99368.16;4915580;29;20038;-85
2022/06/22 05:08:09;;;;;;;5.65;3.13;;;;;;;18.24;61.44;99370.47;4912012;29;20032;-87
2022/06/22 05:10:42;;;;;;;4.75;2.80;;;;;;;18.34;61.25;99367.38;4907820;29;20477;-86
2022/06/22 05:13:34;;;;;;;3.55;2.75;;;;;;;18.33;61.16;99363.00;4923705;29;20176;-87
2022/06/22 05:16:01;;;;;;;3.88;2.85;;;;;;;18.30;61.39;99360.69;4900173;29;20051;-87
2022/06/22 05:18:29;;;;;;;5.07;3.08;;;;;;;18.30;61.82;99349.88;4906469;29;20047;-86
2022/06/22 05:21:02;;;;;;;4.10;2.88;;;;;;;18.31;61.34;99354.25;4907796;29;20089;-86
2022/06/22 05:23:29;;;;;;;4.30;3.25;;;;;;;18.38;61.55;99352.41;4924428;29;20144;-86
2022/06/22 05:25:58;;;;;;;7.75;3.42;;;;;;;18.41;61.03;99351.97;4908365;29;20046;-87
2022/06/22 05:28:31;;;;;;;11.60;5.25;;;;;;;18.34;61.85;99358.41;4909490;29;20042;-88
2022/06/22 05:31:13;;;;;;;5.03;3.20;;;;;;;18.41;61.50;99364.69;4909339;29;20394;-87
2022/06/22 05:33:43;;;;;;;6.00;3.13;;;;;;;18.43;60.83;99358.03;4907294;29;20031;-87
2022/06/22 05:36:10;;;;;;;6.90;3.33;;;;;;;18.43;61.13;99352.63;4920948;29;20032;-83
2022/06/22 05:38:39;;;;;;;5.80;2.83;;;;;;;18.46;61.53;99362.25;4908519;29;20031;-88
2022/06/22 05:41:07;;;;;;;4.47;3.22;;;;;;;18.43;60.75;99359.91;4907398;29;20027;-86
2022/06/22 05:43:33;;;;;;;5.65;3.22;;;;;;;18.43;60.77;99362.63;4915409;29;20026;-87
2022/06/22 05:46:02;;;;;;;4.40;3.38;;;;;;;18.40;61.46;99363.84;4904894;29;20035;-86
2022/06/22 05:48:28;;;;;;;;;;;;;;;18.45;60.60;99377.66;4908866;29;20035;-86
2022/06/22 05:50:57;;;;;;;5.10;3.25;;;;;;;18.46;61.72;99368.50;4939397;29;20957;-88
2022/06/22 05:53:47;;;;;;;6.82;3.60;;;;;;;18.45;61.06;99377.66;4908819;29;20024;-89
2022/06/22 05:56:19;;;;;;;7.85;4.13;;;;;;;18.47;60.65;99382.84;4918058;29;20036;-87
2022/06/22 05:59:27;;;;;;;5.80;3.20;;;;;;;18.53;60.62;99391.00;4899419;29;20414;-87
2022/06/22 06:02:19;;;;;;;4.82;3.38;;;;;;;18.51;60.85;99393.09;4808864;29;20057;-87
2022/06/22 06:04:57;;;;;;;8.98;4.10;;;;;;;18.51;60.59;99390.38;4912044;29;20040;-87
2022/06/22 06:07:33;;;;;;;8.40;4.00;;;;;;;18.55;61.20;99379.97;4914303;29;20055;-87
2022/06/22 06:10:00;;;;;;;5.40;3.35;;;;;;;18.52;60.44;99383.91;4904472;29;20027;-87
2022/06/22 06:12:32;;;;;;;7.00;3.88;;;;;;;18.50;60.38;99399.53;4898331;29;20093;-87
2022/06/22 06:14:57;;;;;;;7.13;3.85;;;;;;;18.50;61.02;99398.69;4902198;29;20082;-87
2022/06/22 06:17:29;;;;;;;5.47;3.50;;;;;;;18.52;62.07;99392.03;4922137;29;20031;-87
2022/06/22 06:19:55;;;;;;;4.95;3.70;;;;;;;18.50;61.60;99382.44;4913337;29;20051;-87
2022/06/22 06:22:22;;;;;;;6.35;4.05;;;;;;;18.46;61.61;99382.03;4900136;29;20086;-87
2022/06/22 06:27:39;;;;;;;7.57;3.90;;;;;;;18.61;61.15;99381.03;4927442;29;20548;-89
2022/06/22 06:30:24;;;;;;;;;;;;;;;18.61;61.29;99379.16;4905400;29;20039;-87
2022/06/22 06:33:19;;;;;;;5.55;3.35;;;;;;;18.60;60.11;99384.78;4906976;29;20366;-87
2022/06/22 06:36:02;;;;;;;6.07;4.35;;;;;;;18.57;60.56;99391.44;4902704;29;20039;-87
2022/06/22 06:38:29;;;;;;;18.45;4.70;;;;;;;18.58;60.91;99387.69;4900899;29;20788;-87
2022/06/22 06:41:13;;;;;;;6.20;3.70;;;;;;;18.60;61.21;99379.34;4905842;29;20028;-88
2022/06/22 06:43:47;;;;;;;6.47;3.65;;;;;;;18.60;60.21;99376.66;4901453;29;20381;-87
2022/06/22 06:46:26;;;;;;;6.65;3.85;;;;;;;18.61;60.82;99375.59;4909292;29;20038;-87
2022/06/22 06:49:06;;;;;;;5.95;3.45;;;;;;;18.70;60.83;99375.25;4907173;29;20051;-87
2022/06/22 06:51:32;;;;;;;6.20;3.40;;;;;;;18.74;59.80;99370.25;4922703;29;20386;-88
2022/06/22 06:54:06;;;;;;;4.57;3.17;;;;;;;18.72;59.65;99373.16;4906942;29;20055;-88
2022/06/22 06:56:38;;;;;;;6.03;3.60;;;;;;;18.74;60.89;99364.84;4920017;29;20177;-87
2022/06/22 06:59:09;;;;;;;6.03;3.60;;;;;;;18.76;61.16;99371.72;4902442;29;20035;-87
2022/06/22 07:01:37;;;;;;;7.07;3.97;;;;;;;18.74;61.55;99368.38;4901803;29;20051;-88
2022/06/22 07:04:08;;;;;;;5.60;3.95;;;;;;;18.69;60.91;99368.16;4904998;29;20394;-88
2022/06/22 07:06:34;;;;;;;6.07;3.72;;;;;;;18.72;61.66;99380.47;4923263;29;21016;-87
2022/06/22 07:09:02;;;;;;;5.10;3.53;;;;;;;18.75;61.59;99382.75;4904903;29;20114;-88
2022/06/22 07:11:31;;;;;;;5.93;3.93;;;;;;;18.79;61.10;99382.13;4924394;29;20173;-88
2022/06/22 07:14:31;;;;;;;5.57;2.95;;;;;;;18.84;61.00;99378.81;4921857;29;20178;-89
2022/06/22 07:16:59;;;;;;;4.15;3.28;;;;;;;18.90;60.61;99379.84;4899840;28;20122;-87
2022/06/22 07:19:46;;;;;;;4.88;2.97;;;;;;;18.94;60.69;99381.16;4907919;29;20075;-87
2022/06/22 07:22:26;;;;;;;4.80;3.70;;;;;;;18.88;61.08;99386.31;4920205;29;20055;-87
2022/06/22 07:25:16;;;;;;;7.25;3.40;;;;;;;18.88;60.63;99389.03;4911482;29;20183;-87
2022/06/22 07:27:55;;;;;;;3.25;2.53;;;;;;;18.95;60.41;99396.38;4926282;29;20140;-87
2022/06/22 07:30:25;;;;;;;4.35;3.03;;;;;;;18.95;59.95;99391.78;4912957;29;20019;-87
2022/06/22 07:32:59;;;;;;;5.22;2.75;;;;;;;18.98;59.95;99393.25;4940559;29;20919;-87
2022/06/22 07:35:36;;;;;;;5.15;2.72;;;;;;;19.03;59.97;99388.03;4926231;29;20039;-87
2022/06/22 07:38:02;;;;;;;9.18;4.55;;;;;;;19.06;60.52;99388.47;4937698;28;20071;-86
2022/06/22 07:40:28;;;;;;;7.93;3.47;;;;;;;19.08;61.33;99388.25;4925431;29;20123;-87
2022/06/22 07:42:55;;;;;;;5.25;2.75;;;;;;;19.12;60.46;99384.09;4910166;29;20370;-87
2022/06/22 07:45:21;;;;;;;5.50;2.80;;;;;;;19.14;60.10;99387.41;4910208;29;20831;-88
2022/06/22 07:47:55;;;;;;;4.00;2.97;;;;;;;19.12;61.00;99384.91;4909988;29;20027;-87
2022/06/22 07:50:25;;;;;;;7.30;3.30;;;;;;;19.12;59.95;99386.78;4912758;29;20039;-87
2022/06/22 07:52:54;;;;;;;8.05;3.75;;;;;;;19.11;60.92;99385.13;4922024;29;20054;-87
2022/06/22 07:55:35;;;;;;;4.47;2.85;;;;;;;19.14;60.48;99387.41;4907180;29;20398;-87
2022/06/22 07:58:27;;;;;;;7.53;3.35;;;;;;;19.11;60.21;99391.38;4921750;29;20031;-88
2022/06/22 08:00:55;;;;;;;8.57;3.97;;;;;;;19.13;60.21;99383.88;4926033;29;20079;-87
2022/06/22 08:03:26;;;;;;;4.63;2.70;;;;;;;19.21;60.50;99379.28;4923206;29;20040;-88
2022/06/22 08:05:55;;;;;;;3.85;2.60;;;;;;;19.29;60.34;99379.91;4908435;29;20162;-87
2022/06/22 08:08:31;;;;;;;5.65;3.13;;;;;;;19.23;60.69;99386.16;4924115;29;20031;-87
2022/06/22 08:11:03;;;;;;;5.32;2.58;;;;;;;19.23;59.98;99382.63;4911500;29;20031;-87
2022/06/22 08:13:37;;;;;;;5.53;3.05;;;;;;;19.24;60.17;99389.72;4928924;29;20466;-90
2022/06/22 08:16:05;;;;;;;5.40;2.58;;;;;;;19.27;60.78;99378.44;4926812;29;20034;-87
2022/06/22 08:18:31;;;;;;;7.30;2.97;;;;;;;19.30;60.98;99378.88;4908785;29;20048;-87
2022/06/22 08:20:57;;;;;;;4.97;2.75;;;;;;;19.31;60.27;99369.69;4911138;29;20541;-87
2022/06/22 08:23:32;;;;;;;6.35;2.72;;;;;;;19.34;61.54;99374.69;4912031;29;20031;-87
2022/06/22 08:26:00;;;;;;;5.20;3.13;;;;;;;19.39;60.89;99384.91;4925105;29;20493;-87
2022/06/22 08:28:25;;;;;;;4.05;2.47;;;;;;;19.41;59.59;99385.56;4903925;29;20031;-86
2022/06/22 08:30:52;;;;;;;4.55;2.70;;;;;;;19.44;60.33;99379.72;4911863;29;20027;-87
2022/06/22 08:33:37;;;;;;;3.08;2.40;;;;;;;19.46;60.20;99369.50;4911873;29;20027;-87
2022/06/22 08:36:09;;;;;;;4.07;2.33;;;;;;;19.50;59.81;99387.03;4933585;29;20102;-86
2022/06/22 08:38:48;;;;;;;3.75;2.45;;;;;;;19.56;60.64;99390.81;4919278;29;20038;-85
2022/06/22 08:41:32;;;;;;;4.88;2.90;;;;;;;19.61;60.40;99389.13;4920112;29;20028;-85
2022/06/22 08:44:18;;;;;;;5.20;2.30;;;;;;;19.66;60.27;99386.63;4912077;29;20027;-85
2022/06/22 08:46:49;;;;;;;3.63;2.20;;;;;;;19.65;60.45;99384.94;4913880;28;20034;-85
2022/06/22 08:49:34;;;;;;;4.10;2.40;;;;;;;19.66;61.02;99389.34;4942504;28;20039;-85
2022/06/22 08:52:08;;;;;;;6.65;3.70;;;;;;;19.59;61.00;99390.38;4908579;29;20023;-86
2022/06/22 08:54:47;;;;;;;6.43;3.10;;;;;;;19.54;61.83;99382.88;4941522;29;20043;-86
2022/06/22 08:57:29;;;;;;;4.25;2.45;;;;;;;19.58;61.34;99375.16;4921760;29;20498;-83
2022/06/22 09:00:01;;;;;;;3.28;2.00;;;;;;;19.67;60.64;99371.16;4922101;29;20028;-83
2022/06/22 09:02:30;;;;;;;3.78;2.40;;;;;;;19.72;61.16;99372.19;4942350;29;20106;-85
2022/06/22 09:05:27;;;;;;;4.70;2.17;;;;;;;19.74;61.01;99374.72;4924448;29;20557;-83
2022/06/22 09:08:20;;;;;;;5.25;2.70;;;;;;;19.74;60.12;99377.41;4923305;29;20035;-83
2022/06/22 09:11:10;;;;;;;5.13;2.67;;;;;;;19.72;61.39;99376.78;4927469;29;20027;-82
2022/06/22 09:13:41;;;;;;;5.55;2.97;;;;;;;19.70;60.08;99368.03;4913658;29;20043;-84
2022/06/22 09:16:29;;;;;;;5.45;2.47;;;;;;;19.70;59.77;99371.59;4910244;29;20034;-83
2022/06/22 09:19:13;;;;;;;3.40;2.22;;;;;;;19.74;59.99;99367.41;4939069;29;20169;-86
2022/06/22 09:21:38;;;;;;;6.72;3.05;;;;;;;19.71;59.76;99370.53;4940669;29;20031;-86
2022/06/22 09:24:17;;;;;;;3.73;2.00;;;;;;;19.75;60.53;99369.06;4943528;29;20027;-83
2022/06/22 09:26:53;;;;;;;6.03;2.58;;;;;;;19.78;59.75;99365.09;4910226;29;20299;-85
2022/06/22 09:29:39;;;;;;;5.55;2.20;;;;;;;19.82;60.29;99363.63;4905800;29;20413;-86
2022/06/22 09:32:31;;;;;;;5.90;2.75;;;;;;;19.83;59.77;99356.31;4922579;29;20063;-86
2022/06/22 09:35:02;;;;;;;4.95;1.90;;;;;;;19.89;60.85;99350.06;4913444;29;20503;-86
2022/06/22 09:37:37;;;;;;;3.67;2.30;;;;;;;19.89;60.79;99341.91;4925141;29;20027;-86
2022/06/22 09:40:34;;;;;;;4.25;2.72;;;;;;;19.96;60.26;99342.72;4921545;29;20597;-87
2022/06/22 09:43:31;;;;;;;10.45;3.13;;;;;;;19.93;60.70;99349.44;4924639;29;20130;-86
2022/06/22 09:46:20;;;;;;;5.38;3.20;;;;;;;19.96;61.12;99342.72;4898497;29;20048;-86
2022/06/22 09:49:20;;;;;;;2.40;1.80;;;;;;;19.99;59.66;99337.72;4914215;29;20062;-86
2022/06/22 09:52:07;;;;;;;6.63;2.70;;;;;;;20.00;60.45;99331.22;4925134;29;20044;-85
2022/06/22 09:58:30;;;;;;;4.43;2.30;;;;;;;20.08;59.99;99339.13;4935201;29;20057;-86
2022/06/22 10:01:04;;;;;;;3.47;2.10;;;;;;;20.11;60.17;99330.56;4868960;29;20116;-86
2022/06/22 10:04:13;;;;;;;2.40;1.80;;;;;;;20.14;60.47;99337.44;4915582;29;20073;-85
2022/06/22 10:07:05;;;;;;;4.63;2.38;;;;;;;20.15;59.99;99341.00;4939494;29;20036;-86
2022/06/22 10:09:59;;;;;;;5.78;3.25;;;;;;;20.20;59.35;99333.03;4910522;29;20406;-84
2022/06/22 10:13:02;;;;;;;3.83;2.17;;;;;;;20.18;60.42;99333.25;4895745;29;20039;-84
2022/06/22 10:15:49;;;;;;;4.15;2.05;;;;;;;20.23;61.15;99330.72;4926366;29;20039;-88
2022/06/22 10:18:40;;;;;;;6.82;2.85;;;;;;;20.26;60.63;99343.03;4938468;29;20134;-85
2022/06/22 10:21:19;;;;;;;4.13;2.40;;;;;;;20.26;60.01;99343.84;4937956;29;20042;-84
2022/06/22 10:23:57;;;;;;;;;;;;;;;20.25;60.29;99342.19;4923310;29;20059;-84
2022/06/22 10:26:49;;;;;;;;;;;;;;;20.28;60.24;99338.22;4925264;29;20001;-84
2022/06/22 10:29:45;;;;;;;4.05;2.97;;;;;;;20.30;59.81;99339.66;4902973;29;20037;-84
2022/06/22 10:32:34;;;;;;;6.88;3.38;;;;;;;20.32;60.37;99339.44;4938086;29;20031;-84
2022/06/22 10:35:23;;;;;;;4.55;2.38;;;;;;;20.36;59.67;99336.09;4909170;29;20385;-84
2022/06/22 10:37:56;;;;;;;4.07;2.58;;;;;;;20.36;59.59;99336.09;4940398;29;20070;-84
2022/06/22 10:46:37;;;;;;;3.78;2.10;;;;;;;20.56;57.34;99338.75;4946456;29;20046;-78
2022/06/22 10:49:32;;;;;;;5.45;2.20;;;;;;;20.58;56.59;99336.63;4926536;29;20023;-79
2022/06/22 10:52:10;;;;;;;4.50;2.67;;;;;;;20.62;55.38;99335.16;4938296;29;20038;-85
2022/06/22 10:54:53;;;;;;;6.20;2.45;;;;;;;20.66;54.80;99335.53;4910720;29;20071;-84
2022/06/22 10:57:33;;;;;;;4.75;2.30;;;;;;;20.71;55.95;99343.88;4923703;29;20375;-85
2022/06/22 11:00:15;;;;;;;3.55;1.80;;;;;;;20.74;55.62;99344.28;4937436;29;20023;-85
2022/06/22 11:02:59;;;;;;;2.78;1.80;;;;;;;20.79;53.34;99343.59;4903485;29;20788;-85
2022/06/22 11:05:43;;;;;;;3.00;1.80;;;;;;;20.84;53.76;99349.25;4942774;29;20051;-84
2022/06/22 11:08:20;;;;;;;3.20;1.65;;;;;;;20.85;54.63;99352.81;4908021;29;20043;-84
2022/06/22 11:11:01;;;;;;;4.60;2.53;;;;;;;20.85;54.00;99355.53;4938277;29;20044;-85
2022/06/22 11:13:51;;;;;;;3.50;2.03;;;;;;;20.84;53.66;99343.81;4910925;29;20086;-84
2022/06/22 11:16:29;;;;;;;4.25;2.20;;;;;;;20.87;55.77;99348.81;4928657;29;20425;-84
2022/06/22 11:19:08;;;;;;;7.00;2.13;;;;;;;20.92;54.88;99340.81;4929684;29;20043;-89
2022/06/22 11:21:44;;;;;;;2.95;1.83;;;;;;;20.94;53.22;99343.31;4914999;29;20840;-85
2022/06/22 11:24:28;;;;;;;4.03;2.00;;;;;;;20.98;55.02;99339.13;4930928;29;20031;-76
2022/06/22 11:33:10;;;;;;;3.05;2.10;;;;;;;21.05;55.45;99340.72;4925317;29;20042;-86
2022/06/22 11:35:54;;;;;;;4.47;1.92;;;;;;;21.12;55.82;99343.38;4927835;29;20034;-85
2022/06/22 11:38:37;;;;;;;3.58;2.33;;;;;;;21.15;56.09;99344.84;4925215;29;20385;-86
2022/06/22 11:41:30;;;;;;;3.53;2.03;;;;;;;21.18;55.67;99342.50;4910180;29;20119;-87
2022/06/22 11:44:14;;;;;;;4.65;2.22;;;;;;;21.23;54.80;99350.03;4928410;29;20043;-86
2022/06/22 11:46:49;;;;;;;3.58;2.28;;;;;;;21.39;52.42;99340.50;4944224;28;20548;-86
2022/06/22 11:49:34;;;;;;;6.63;2.15;;;;;;;21.47;52.49;99346.47;4914006;29;20093;-86
2022/06/22 11:52:42;;;;;;;3.03;1.80;;;;;;;21.47;54.49;99342.94;4943796;29;20125;-86
2022/06/22 11:55:19;;;;;;;3.47;1.60;;;;;;;21.47;55.67;99354.66;4884167;29;20027;-86
2022/06/22 11:58:27;;;;;;;2.95;1.80;;;;;;;21.52;55.52;99346.66;4929246;29;20421;-86
2022/06/22 12:01:20;;;;;;;3.53;2.00;;;;;;;21.61;54.39;99355.34;4939789;29;20038;-86
2022/06/22 12:03:57;;;;;;;3.22;2.00;;;;;;;21.63;51.97;99337.75;4942285;29;20031;-86
2022/06/22 12:07:06;;;;;;;3.33;1.40;;;;;;;21.70;50.01;99334.94;4943268;29;20040;-85
2022/06/22 12:09:42;;;;;;;;;;;;;;;21.69;50.02;99336.00;4926473;29;20044;-87
2022/06/22 12:12:39;;;;;;;3.38;1.65;;;;;;;21.71;50.66;99331.16;4941638;29;19922;-85
2022/06/22 12:15:18;;;;;;;3.47;1.67;;;;;;;21.72;50.78;99326.56;4941872;29;20028;-86
2022/06/22 12:18:06;;;;;;;4.10;1.83;;;;;;;21.77;49.51;99321.28;4924527;29;20056;-86
2022/06/22 12:21:06;;;;;;;1.85;1.67;;;;;;;21.79;52.30;99320.00;4926165;29;20031;-86
2022/06/22 12:23:45;;;;;;;3.00;1.63;;;;;;;21.81;49.31;99317.88;4924692;29;20027;-86
2022/06/22 12:26:29;;;;;;;;;;;;;;;21.81;49.44;99317.06;4927635;29;20066;-86
2022/06/22 12:29:14;;;;;;;3.88;1.80;;;;;;;21.83;51.38;99317.66;4940763;29;19925;-86
2022/06/22 12:31:49;;;;;;;3.63;2.00;;;;;;;21.89;48.82;99316.75;4910153;29;20058;-86
2022/06/22 12:34:25;;;;;;;2.22;1.70;;;;;;;21.94;49.72;99306.00;4908143;29;20039;-86
2022/06/22 12:36:54;;;;;;;5.32;1.73;;;;;;;21.97;50.01;99313.72;4910950;29;20031;-87
2022/06/22 12:39:35;;;;;;;3.17;1.75;;;;;;;21.99;49.85;99317.03;4908514;29;20027;-86
2022/06/22 12:42:37;;;;;;;2.75;1.60;;;;;;;22.02;48.19;99300.25;4943500;29;20445;-86
2022/06/22 12:45:15;;;;;;;3.60;1.90;;;;;;;22.17;47.01;99294.44;4923571;29;20134;-86
2022/06/22 12:47:50;;;;;;;2.73;1.73;;;;;;;22.18;48.72;99293.38;4910154;29;20035;-86